N178LA EDDN-EDDS

Flight info

Callsign N178LA
Flight time 0h 51m
Altitude 6000
Route NUB DCT DKB DCT STG
Aircraft C172/L-SFG/C

Departure

Time 2026-05-07 13:08
Airport Nuremberg Airport (EDDN)

Arrival

Time 2026-05-07 14:00
Airport Stuttgart Airport (EDDS)
Time Latitude Longitude Altitude Speed Heading
2026-05-07 12:50 49.49654 11.07092 1028 ft 0 kts
2026-05-07 12:58 49.49656 11.07093 1028 ft 1 kts 19°
2026-05-07 12:59 49.49655 11.07120 1029 ft 6 kts 167°
2026-05-07 12:59 49.49588 11.07130 1026 ft 11 kts 112°
2026-05-07 12:59 49.49608 11.07211 1028 ft 7 kts 20°
2026-05-07 12:59 49.49651 11.07222 1030 ft 8 kts 12°
2026-05-07 13:00 49.49727 11.07297 1033 ft 19 kts 86°
2026-05-07 13:00 49.49707 11.07505 1036 ft 18 kts 96°
2026-05-07 13:00 49.49690 11.07681 1038 ft 15 kts 98°
2026-05-07 13:00 49.49652 11.07823 1036 ft 15 kts 99°
2026-05-07 13:01 49.49636 11.07973 1036 ft 14 kts 102°
2026-05-07 13:01 49.49624 11.08119 1037 ft 14 kts 97°
2026-05-07 13:01 49.49610 11.08260 1037 ft 13 kts 100°
2026-05-07 13:01 49.49614 11.08383 1037 ft 12 kts 48°
2026-05-07 13:02 49.49660 11.08479 1038 ft 11 kts 53°
2026-05-07 13:02 49.49708 11.08555 1040 ft 0 kts 28°
2026-05-07 13:05 49.49709 11.08556 1040 ft 3 kts 24°
2026-05-07 13:05 49.49785 11.08531 1038 ft 16 kts 314°
2026-05-07 13:05 49.49808 11.08429 1039 ft 0 kts 279°
2026-05-07 13:07 49.49826 11.08251 1038 ft 41 kts 279°
2026-05-07 13:08 49.49893 11.07637 1090 ft 67 kts 281°
2026-05-07 13:08 49.50023 11.06856 1202 ft 79 kts 286°
2026-05-07 13:08 49.50138 11.06045 1433 ft 74 kts 281°
2026-05-07 13:08 49.50265 11.05295 1696 ft 72 kts 288°
2026-05-07 13:09 49.50519 11.04654 2019 ft 75 kts 334°
2026-05-07 13:09 49.51030 11.04389 2268 ft 82 kts 336°
2026-05-07 13:09 49.51585 11.04072 2471 ft 89 kts 337°
2026-05-07 13:09 49.52127 11.03598 2638 ft 92 kts 304°
2026-05-07 13:10 49.52288 11.02642 2817 ft 92 kts 284°
2026-05-07 13:10 49.52407 11.01693 3006 ft 88 kts 284°
2026-05-07 13:10 49.52508 11.00800 3191 ft 83 kts 284°
2026-05-07 13:10 49.52602 10.99942 3381 ft 80 kts 284°
2026-05-07 13:11 49.52694 10.99103 3573 ft 78 kts 283°
2026-05-07 13:11 49.52784 10.98290 3761 ft 75 kts 283°
2026-05-07 13:11 49.52835 10.97509 3939 ft 75 kts 262°
2026-05-07 13:11 49.52484 10.96895 4115 ft 76 kts 237°
2026-05-07 13:12 49.52114 10.96349 4307 ft 72 kts 233°
2026-05-07 13:12 49.51763 10.95859 4501 ft 65 kts 236°
2026-05-07 13:12 49.51432 10.95411 4696 ft 61 kts 236°
2026-05-07 13:12 49.51117 10.95000 4881 ft 57 kts 236°
2026-05-07 13:13 49.50824 10.94634 5055 ft 51 kts 234°
2026-05-07 13:13 49.50558 10.94323 5147 ft 50 kts 236°
2026-05-07 13:13 49.50270 10.93943 5230 ft 59 kts 236°
2026-05-07 13:13 49.49952 10.93493 5317 ft 66 kts 237°
2026-05-07 13:14 49.49606 10.92978 5396 ft 72 kts 237°
2026-05-07 13:14 49.49230 10.92413 5460 ft 79 kts 233°
2026-05-07 13:14 49.48792 10.91800 5511 ft 89 kts 234°
2026-05-07 13:14 49.48339 10.91137 5577 ft 94 kts 234°
2026-05-07 13:15 49.47857 10.90423 5647 ft 97 kts 234°
2026-05-07 13:15 49.47372 10.89689 5714 ft 99 kts 235°
2026-05-07 13:15 49.46880 10.88941 5777 ft 99 kts 234°
2026-05-07 13:15 49.46387 10.88193 5845 ft 100 kts 234°
2026-05-07 13:16 49.45886 10.87434 5894 ft 103 kts 234°
2026-05-07 13:16 49.45374 10.86639 5948 ft 106 kts 235°
2026-05-07 13:16 49.44853 10.85822 5987 ft 109 kts 236°
2026-05-07 13:16 49.44313 10.84980 5986 ft 111 kts 235°
2026-05-07 13:17 49.43766 10.84146 5988 ft 113 kts 234°
2026-05-07 13:17 49.43207 10.83299 5989 ft 113 kts 234°
2026-05-07 13:17 49.42648 10.82442 5990 ft 113 kts 234°
2026-05-07 13:17 49.42097 10.81595 5991 ft 112 kts 234°
2026-05-07 13:18 49.41536 10.80740 5992 ft 113 kts 234°
2026-05-07 13:18 49.40981 10.79895 5993 ft 111 kts 234°
2026-05-07 13:18 49.40436 10.79071 5994 ft 109 kts 234°
2026-05-07 13:18 49.39893 10.78250 5996 ft 109 kts 234°
2026-05-07 13:19 49.39350 10.77431 5994 ft 110 kts 234°
2026-05-07 13:19 49.38806 10.76603 5995 ft 110 kts 234°
2026-05-07 13:19 49.38270 10.75784 6001 ft 110 kts 234°
2026-05-07 13:19 49.37721 10.74953 5998 ft 111 kts 234°
2026-05-07 13:20 49.37169 10.74122 5999 ft 111 kts 234°
2026-05-07 13:20 49.36628 10.73278 6009 ft 108 kts 242°
2026-05-07 13:20 49.36274 10.72275 5992 ft 110 kts 239°
2026-05-07 13:20 49.35613 10.71619 6013 ft 112 kts 225°
2026-05-07 13:21 49.35090 10.70780 6018 ft 108 kts 240°
2026-05-07 13:21 49.34570 10.69922 6007 ft 110 kts 234°
2026-05-07 13:21 49.34045 10.69066 6012 ft 110 kts 237°
2026-05-07 13:21 49.33529 10.68186 6010 ft 111 kts 237°
2026-05-07 13:22 49.33020 10.67322 6012 ft 110 kts 238°
2026-05-07 13:22 49.32499 10.66449 6014 ft 110 kts 237°
2026-05-07 13:22 49.31989 10.65586 6017 ft 111 kts 237°
2026-05-07 13:22 49.31473 10.64713 6015 ft 110 kts 237°
2026-05-07 13:23 49.30958 10.63842 6022 ft 110 kts 237°
2026-05-07 13:23 49.30607 10.63249 6024 ft 110 kts 237°
2026-05-07 13:23 49.30001 10.62221 6023 ft 111 kts 238°
2026-05-07 13:23 49.29501 10.61320 6025 ft 110 kts 239°
2026-05-07 13:24 49.29009 10.60418 6025 ft 110 kts 239°
2026-05-07 13:24 49.28518 10.59521 6028 ft 109 kts 239°
2026-05-07 13:24 49.28032 10.58622 6027 ft 109 kts 240°
2026-05-07 13:24 49.27558 10.57714 6030 ft 109 kts 240°
2026-05-07 13:25 49.27083 10.56806 6028 ft 110 kts 240°
2026-05-07 13:25 49.26606 10.55890 6022 ft 109 kts 240°
2026-05-07 13:25 49.26130 10.54984 6025 ft 109 kts 240°
2026-05-07 13:25 49.25655 10.54079 6027 ft 109 kts 240°
2026-05-07 13:26 49.25181 10.53165 6026 ft 110 kts 242°
2026-05-07 13:26 49.24722 10.52220 6025 ft 111 kts 242°
2026-05-07 13:26 49.24261 10.51272 6023 ft 111 kts 242°
2026-05-07 13:26 49.23804 10.50344 6025 ft 110 kts 242°
2026-05-07 13:27 49.23341 10.49410 6028 ft 110 kts 242°
2026-05-07 13:27 49.22880 10.48471 6023 ft 110 kts 242°
2026-05-07 13:27 49.22419 10.47530 6021 ft 111 kts 242°
2026-05-07 13:27 49.21977 10.46568 6018 ft 110 kts 244°
2026-05-07 13:28 49.21540 10.45602 6022 ft 110 kts 244°
2026-05-07 13:28 49.21101 10.44638 6019 ft 110 kts 244°
2026-05-07 13:28 49.20659 10.43680 6019 ft 110 kts 244°
2026-05-07 13:28 49.20237 10.42721 6020 ft 109 kts 246°
2026-05-07 13:29 49.19828 10.41750 6015 ft 110 kts 246°
2026-05-07 13:29 49.19414 10.40761 6013 ft 111 kts 246°
2026-05-07 13:29 49.19001 10.39768 6016 ft 111 kts 246°
2026-05-07 13:29 49.18592 10.38750 6015 ft 113 kts 248°
2026-05-07 13:30 49.18178 10.37713 6015 ft 114 kts 247°
2026-05-07 13:30 49.17764 10.36673 6013 ft 114 kts 247°
2026-05-07 13:30 49.17375 10.35648 6016 ft 111 kts 250°
2026-05-07 13:30 49.17024 10.34607 6008 ft 109 kts 250°
2026-05-07 13:31 49.16680 10.33577 6005 ft 109 kts 250°
2026-05-07 13:31 49.16324 10.32550 6008 ft 109 kts 250°
2026-05-07 13:31 49.15964 10.31522 6003 ft 110 kts 250°
2026-05-07 13:31 49.15622 10.30487 6009 ft 108 kts 253°
2026-05-07 13:32 49.15310 10.29435 6006 ft 109 kts 253°
2026-05-07 13:32 49.14997 10.28377 6007 ft 110 kts 253°
2026-05-07 13:32 49.14554 10.27430 6004 ft 111 kts 238°
2026-05-07 13:32 49.14040 10.26541 6009 ft 112 kts 238°
2026-05-07 13:33 49.13527 10.25645 6007 ft 112 kts 238°
2026-05-07 13:33 49.13011 10.24736 6008 ft 113 kts 238°
2026-05-07 13:33 49.12495 10.23827 6007 ft 113 kts 238°
2026-05-07 13:33 49.11973 10.22926 6003 ft 113 kts 238°
2026-05-07 13:34 49.11452 10.22023 6002 ft 114 kts 238°
2026-05-07 13:34 49.10411 10.20162 6003 ft 115 kts 238°
2026-05-07 13:34 49.09893 10.19220 6003 ft 116 kts 238°
2026-05-07 13:35 49.09365 10.18274 6004 ft 117 kts 238°
2026-05-07 13:35 49.08850 10.17334 6002 ft 116 kts 239°
2026-05-07 13:35 49.08340 10.16386 6006 ft 115 kts 239°
2026-05-07 13:35 49.07829 10.15441 6001 ft 116 kts 239°
2026-05-07 13:36 49.07314 10.14490 6003 ft 116 kts 239°
2026-05-07 13:36 49.06804 10.13546 6001 ft 115 kts 239°
2026-05-07 13:36 49.06294 10.12615 6002 ft 114 kts 239°
2026-05-07 13:36 49.05787 10.11693 6002 ft 113 kts 239°
2026-05-07 13:37 49.05278 10.10772 6004 ft 113 kts 239°
2026-05-07 13:37 49.04775 10.09844 6001 ft 114 kts 239°
2026-05-07 13:37 49.04442 10.09229 6002 ft 113 kts 239°
2026-05-07 13:37 49.03773 10.07997 6002 ft 113 kts 239°
2026-05-07 13:38 49.03439 10.07390 6001 ft 113 kts 239°
2026-05-07 13:38 49.02936 10.06480 6002 ft 112 kts 239°
2026-05-07 13:38 49.02433 10.05568 6002 ft 112 kts 239°
2026-05-07 13:38 49.02111 10.04965 6000 ft 112 kts 240°
2026-05-07 13:39 49.01628 10.04034 5999 ft 113 kts 240°
2026-05-07 13:39 49.01138 10.03100 6005 ft 112 kts 240°
2026-05-07 13:39 49.00651 10.02175 6004 ft 112 kts 240°
2026-05-07 13:39 49.00164 10.01251 5999 ft 112 kts 240°
2026-05-07 13:40 48.99678 10.00318 5999 ft 113 kts 240°
2026-05-07 13:40 48.99189 9.99373 6002 ft 113 kts 240°
2026-05-07 13:40 48.98702 9.98440 5999 ft 112 kts 240°
2026-05-07 13:40 48.98220 9.97524 6000 ft 113 kts 240°
2026-05-07 13:41 48.97729 9.96587 5999 ft 113 kts 240°
2026-05-07 13:41 48.97236 9.95650 6000 ft 113 kts 240°
2026-05-07 13:41 48.96742 9.94712 6006 ft 113 kts 240°
2026-05-07 13:41 48.96258 9.93767 5998 ft 113 kts 241°
2026-05-07 13:42 48.95780 9.92815 5998 ft 113 kts 241°
2026-05-07 13:42 48.95298 9.91868 6000 ft 112 kts 241°
2026-05-07 13:42 48.94821 9.90926 5998 ft 113 kts 241°
2026-05-07 13:42 48.94342 9.89954 6003 ft 117 kts 242°
2026-05-07 13:43 48.93859 9.88953 6011 ft 117 kts 243°
2026-05-07 13:43 48.93380 9.87957 5998 ft 116 kts 242°
2026-05-07 13:43 48.92910 9.86968 5987 ft 114 kts 242°
2026-05-07 13:43 48.92458 9.86037 5998 ft 111 kts 242°
2026-05-07 13:44 48.91995 9.85091 6006 ft 112 kts 242°
2026-05-07 13:44 48.91531 9.84138 5997 ft 112 kts 242°
2026-05-07 13:44 48.91073 9.83191 5997 ft 110 kts 242°
2026-05-07 13:44 48.90610 9.82255 5994 ft 111 kts 242°
2026-05-07 13:45 48.90144 9.81302 6003 ft 113 kts 242°
2026-05-07 13:45 48.89685 9.80321 6005 ft 114 kts 243°
2026-05-07 13:46 48.89600 9.80136 5990 ft 114 kts 243°
2026-05-07 13:46 48.89175 9.79216 5992 ft 112 kts 244°
2026-05-07 13:46 48.88719 9.78255 5995 ft 111 kts 243°
2026-05-07 13:47 48.88268 9.77306 5992 ft 111 kts 243°
2026-05-07 13:47 48.87820 9.76355 5989 ft 113 kts 243°
2026-05-07 13:47 48.87369 9.75379 5993 ft 113 kts 243°
2026-05-07 13:47 48.86922 9.74400 5989 ft 112 kts 244°
2026-05-07 13:48 48.86482 9.73425 5996 ft 112 kts 244°
2026-05-07 13:48 48.86046 9.72441 5988 ft 113 kts 244°
2026-05-07 13:48 48.85611 9.71462 5993 ft 111 kts 244°
2026-05-07 13:48 48.85176 9.70486 5985 ft 112 kts 244°
2026-05-07 13:49 48.84745 9.69501 5995 ft 112 kts 244°
2026-05-07 13:49 48.84308 9.68509 5994 ft 114 kts 244°
2026-05-07 13:49 48.83867 9.67509 5985 ft 115 kts 244°
2026-05-07 13:49 48.83421 9.66489 5992 ft 114 kts 244°
2026-05-07 13:50 48.82987 9.65498 5986 ft 113 kts 244°
2026-05-07 13:50 48.82550 9.64508 5980 ft 114 kts 244°
2026-05-07 13:50 48.82109 9.63509 5983 ft 114 kts 244°
2026-05-07 13:50 48.81669 9.62505 5979 ft 114 kts 244°
2026-05-07 13:51 48.81245 9.61495 5979 ft 113 kts 246°
2026-05-07 13:51 48.80837 9.60466 5956 ft 115 kts 246°
2026-05-07 13:51 48.80413 9.59398 5857 ft 120 kts 246°
2026-05-07 13:51 48.79984 9.58298 5759 ft 121 kts 246°
2026-05-07 13:52 48.79561 9.57204 5660 ft 120 kts 247°
2026-05-07 13:52 48.79133 9.56120 5556 ft 120 kts 247°
2026-05-07 13:52 48.78702 9.55039 5445 ft 121 kts 246°
2026-05-07 13:52 48.78272 9.53944 5300 ft 121 kts 247°
2026-05-07 13:53 48.77857 9.52853 5141 ft 118 kts 248°
2026-05-07 13:53 48.77443 9.51790 4996 ft 119 kts 247°
2026-05-07 13:53 48.77023 9.50714 4849 ft 118 kts 248°
2026-05-07 13:53 48.76607 9.49635 4682 ft 120 kts 242°
2026-05-07 13:54 48.75981 9.48752 4511 ft 124 kts 229°
2026-05-07 13:54 48.75325 9.47897 4363 ft 125 kts 229°
2026-05-07 13:54 48.74665 9.47038 4207 ft 125 kts 230°
2026-05-07 13:54 48.74009 9.46174 4055 ft 124 kts 229°
2026-05-07 13:55 48.73363 9.45314 3910 ft 122 kts 235°
2026-05-07 13:55 48.73013 9.44187 3802 ft 120 kts 260°
2026-05-07 13:55 48.72807 9.42968 3650 ft 120 kts 263°
2026-05-07 13:55 48.72645 9.41747 3522 ft 121 kts 267°
2026-05-07 13:56 48.72462 9.40486 3357 ft 125 kts 258°
2026-05-07 13:56 48.72155 9.39257 3211 ft 123 kts 260°
2026-05-07 13:56 48.71905 9.38026 3065 ft 123 kts 262°
2026-05-07 13:56 48.71682 9.36776 2981 ft 120 kts 266°
2026-05-07 13:57 48.71566 9.35556 2836 ft 118 kts 267°
2026-05-07 13:57 48.71393 9.34382 2811 ft 113 kts 258°
2026-05-07 13:57 48.71115 9.33262 2695 ft 115 kts 260°
2026-05-07 13:57 48.70858 9.32079 2544 ft 120 kts 262°
2026-05-07 13:58 48.70654 9.30834 2387 ft 122 kts 260°
2026-05-07 13:58 48.70429 9.29619 2301 ft 115 kts 264°
2026-05-07 13:58 48.70204 9.28752 2188 ft 79 kts 269°
2026-05-07 13:58 48.70053 9.27944 1893 ft 81 kts 264°
2026-05-07 13:59 48.69907 9.27125 1705 ft 76 kts 266°
2026-05-07 13:59 48.69767 9.26381 1635 ft 74 kts 265°
2026-05-07 13:59 48.69643 9.25600 1510 ft 77 kts 262°
2026-05-07 13:59 48.69490 9.24827 1395 ft 76 kts 263°
2026-05-07 14:00 48.69341 9.24068 1295 ft 73 kts 262°
2026-05-07 14:00 48.69231 9.23473 1280 ft 46 kts 254°
2026-05-07 14:00 48.69235 9.23207 1280 ft 17 kts 342°
2026-05-07 14:00 48.69261 9.23195 1280 ft 0 kts 346°
2026-05-07 14:02 48.69279 9.23187 1280 ft 10 kts 344°
2026-05-07 14:02 48.69333 9.23079 1280 ft 16 kts 251°
2026-05-07 14:02 48.69298 9.22901 1280 ft 20 kts 253°
2026-05-07 14:03 48.69253 9.22669 1280 ft 25 kts 252°
2026-05-07 14:03 48.69202 9.22400 1280 ft 29 kts 254°
2026-05-07 14:03 48.69145 9.22094 1280 ft 32 kts 254°
2026-05-07 14:03 48.69081 9.21761 1280 ft 34 kts 254°
2026-05-07 14:04 48.69044 9.21567 1280 ft 0 kts 252°
2026-05-07 14:05 48.69030 9.21494 1280 ft 0 kts 246°
2026-05-07 14:05 48.69027 9.21476 1280 ft 8 kts 256°
2026-05-07 14:05 48.69016 9.21301 1280 ft 25 kts 284°
2026-05-07 14:05 48.69080 9.21040 1280 ft 22 kts 319°
2026-05-07 14:06 48.69124 9.21084 1280 ft 9 kts 73°
2026-05-07 14:06 48.69161 9.21177 1280 ft 9 kts 19°
2026-05-07 14:06 48.69168 9.21180 1280 ft 0 kts 15°